sensor_id;sensor_type;location;lat;lon;timestamp;temperature;humidity
10431;DHT22;5262;59.958;17.726;2023-07-02T00:02:16;13.70;99.90
10431;DHT22;5262;59.958;17.726;2023-07-02T00:04:44;13.60;99.90
10431;DHT22;5262;59.958;17.726;2023-07-02T00:07:09;13.50;99.90
10431;DHT22;5262;59.958;17.726;2023-07-02T00:09:35;13.60;99.90
10431;DHT22;5262;59.958;17.726;2023-07-02T00:12:00;13.50;99.90
10431;DHT22;5262;59.958;17.726;2023-07-02T00:14:26;13.40;99.90
10431;DHT22;5262;59.958;17.726;2023-07-02T00:16:52;13.40;99.90
10431;DHT22;5262;59.958;17.726;2023-07-02T00:19:17;13.30;99.90
10431;DHT22;5262;59.958;17.726;2023-07-02T00:21:43;13.20;99.90
10431;DHT22;5262;59.958;17.726;2023-07-02T00:24:09;13.20;99.90
10431;DHT22;5262;59.958;17.726;2023-07-02T00:26:35;13.10;99.90
10431;DHT22;5262;59.958;17.726;2023-07-02T00:29:01;13.00;99.90
10431;DHT22;5262;59.958;17.726;2023-07-02T00:31:29;13.00;99.90
10431;DHT22;5262;59.958;17.726;2023-07-02T00:33:55;12.90;99.90
10431;DHT22;5262;59.958;17.726;2023-07-02T00:36:20;12.90;99.90
10431;DHT22;5262;59.958;17.726;2023-07-02T00:38:48;12.80;99.90
10431;DHT22;5262;59.958;17.726;2023-07-02T00:41:14;12.80;99.90
10431;DHT22;5262;59.958;17.726;2023-07-02T00:43:40;12.60;99.90
10431;DHT22;5262;59.958;17.726;2023-07-02T00:46:15;12.60;99.90
10431;DHT22;5262;59.958;17.726;2023-07-02T00:48:47;12.60;99.90
10431;DHT22;5262;59.958;17.726;2023-07-02T00:51:15;12.50;99.90
10431;DHT22;5262;59.958;17.726;2023-07-02T00:53:41;12.50;99.90
10431;DHT22;5262;59.958;17.726;2023-07-02T00:56:07;12.50;99.90
10431;DHT22;5262;59.958;17.726;2023-07-02T00:58:36;12.40;99.90
10431;DHT22;5262;59.958;17.726;2023-07-02T01:01:03;12.40;99.90
10431;DHT22;5262;59.958;17.726;2023-07-02T01:03:28;12.40;99.90
10431;DHT22;5262;59.958;17.726;2023-07-02T01:05:58;12.30;99.90
10431;DHT22;5262;59.958;17.726;2023-07-02T01:08:24;12.30;99.90
10431;DHT22;5262;59.958;17.726;2023-07-02T01:10:50;12.30;99.90
10431;DHT22;5262;59.958;17.726;2023-07-02T01:13:19;12.30;99.90
10431;DHT22;5262;59.958;17.726;2023-07-02T01:15:46;12.20;99.90
10431;DHT22;5262;59.958;17.726;2023-07-02T01:18:13;12.30;99.90
10431;DHT22;5262;59.958;17.726;2023-07-02T01:20:40;12.30;99.90
10431;DHT22;5262;59.958;17.726;2023-07-02T01:23:07;12.40;99.90
10431;DHT22;5262;59.958;17.726;2023-07-02T01:25:33;12.50;99.90
10431;DHT22;5262;59.958;17.726;2023-07-02T01:28:03;12.60;99.90
10431;DHT22;5262;59.958;17.726;2023-07-02T01:30:29;12.60;99.90
10431;DHT22;5262;59.958;17.726;2023-07-02T01:32:54;12.60;99.90
10431;DHT22;5262;59.958;17.726;2023-07-02T01:35:20;12.70;99.90
10431;DHT22;5262;59.958;17.726;2023-07-02T01:37:46;12.70;99.90
10431;DHT22;5262;59.958;17.726;2023-07-02T01:40:11;12.80;99.90
10431;DHT22;5262;59.958;17.726;2023-07-02T01:42:37;12.90;99.90
10431;DHT22;5262;59.958;17.726;2023-07-02T01:45:04;13.00;99.90
10431;DHT22;5262;59.958;17.726;2023-07-02T01:47:30;13.00;99.90
10431;DHT22;5262;59.958;17.726;2023-07-02T01:49:55;13.10;99.90
10431;DHT22;5262;59.958;17.726;2023-07-02T01:52:21;13.20;99.90
10431;DHT22;5262;59.958;17.726;2023-07-02T01:54:47;13.30;99.90
10431;DHT22;5262;59.958;17.726;2023-07-02T01:57:12;13.30;99.90
10431;DHT22;5262;59.958;17.726;2023-07-02T01:59:38;13.40;99.90
10431;DHT22;5262;59.958;17.726;2023-07-02T02:02:04;13.40;99.90
10431;DHT22;5262;59.958;17.726;2023-07-02T02:04:29;13.30;99.90
10431;DHT22;5262;59.958;17.726;2023-07-02T02:06:55;13.30;99.90
10431;DHT22;5262;59.958;17.726;2023-07-02T02:09:21;13.40;99.90
10431;DHT22;5262;59.958;17.726;2023-07-02T02:11:50;13.40;99.90
10431;DHT22;5262;59.958;17.726;2023-07-02T02:14:17;13.40;99.90
10431;DHT22;5262;59.958;17.726;2023-07-02T02:16:44;13.50;99.90
10431;DHT22;5262;59.958;17.726;2023-07-02T02:19:11;13.50;99.90
10431;DHT22;5262;59.958;17.726;2023-07-02T02:21:37;13.60;99.90
10431;DHT22;5262;59.958;17.726;2023-07-02T02:24:03;13.60;99.90
10431;DHT22;5262;59.958;17.726;2023-07-02T02:26:30;13.60;99.90
10431;DHT22;5262;59.958;17.726;2023-07-02T02:28:56;13.70;99.90
10431;DHT22;5262;59.958;17.726;2023-07-02T02:31:21;13.70;99.90
10431;DHT22;5262;59.958;17.726;2023-07-02T02:33:47;13.70;99.90
10431;DHT22;5262;59.958;17.726;2023-07-02T02:36:13;13.70;99.90
10431;DHT22;5262;59.958;17.726;2023-07-02T02:38:39;13.70;99.90
10431;DHT22;5262;59.958;17.726;2023-07-02T02:41:05;13.80;99.90
10431;DHT22;5262;59.958;17.726;2023-07-02T02:43:31;13.80;99.90
10431;DHT22;5262;59.958;17.726;2023-07-02T02:45:57;13.80;99.90
10431;DHT22;5262;59.958;17.726;2023-07-02T02:48:24;13.90;99.90
10431;DHT22;5262;59.958;17.726;2023-07-02T02:50:49;13.90;99.90
10431;DHT22;5262;59.958;17.726;2023-07-02T02:53:15;13.90;99.90
10431;DHT22;5262;59.958;17.726;2023-07-02T02:55:40;13.90;99.90
10431;DHT22;5262;59.958;17.726;2023-07-02T02:58:06;14.00;99.90
10431;DHT22;5262;59.958;17.726;2023-07-02T03:00:32;14.10;99.90
10431;DHT22;5262;59.958;17.726;2023-07-02T03:02:58;14.10;99.90
10431;DHT22;5262;59.958;17.726;2023-07-02T03:05:24;14.20;99.90
10431;DHT22;5262;59.958;17.726;2023-07-02T03:07:50;14.20;99.90
10431;DHT22;5262;59.958;17.726;2023-07-02T03:10:16;14.30;99.90
10431;DHT22;5262;59.958;17.726;2023-07-02T03:12:42;14.30;99.90
10431;DHT22;5262;59.958;17.726;2023-07-02T03:15:07;14.40;99.90
10431;DHT22;5262;59.958;17.726;2023-07-02T03:17:34;14.60;99.90
10431;DHT22;5262;59.958;17.726;2023-07-02T03:20:00;14.70;99.90
10431;DHT22;5262;59.958;17.726;2023-07-02T03:22:26;14.70;99.90
10431;DHT22;5262;59.958;17.726;2023-07-02T03:24:51;14.80;99.90
10431;DHT22;5262;59.958;17.726;2023-07-02T03:27:17;14.90;99.90
10431;DHT22;5262;59.958;17.726;2023-07-02T03:29:43;15.00;99.90
10431;DHT22;5262;59.958;17.726;2023-07-02T03:32:08;15.00;99.90
10431;DHT22;5262;59.958;17.726;2023-07-02T03:34:34;15.00;99.90
10431;DHT22;5262;59.958;17.726;2023-07-02T03:36:59;15.00;99.90
10431;DHT22;5262;59.958;17.726;2023-07-02T03:39:25;15.10;99.90
10431;DHT22;5262;59.958;17.726;2023-07-02T03:41:51;15.10;99.90
10431;DHT22;5262;59.958;17.726;2023-07-02T03:44:16;15.10;99.90
10431;DHT22;5262;59.958;17.726;2023-07-02T03:46:43;15.20;99.90
10431;DHT22;5262;59.958;17.726;2023-07-02T03:49:08;15.30;99.90
10431;DHT22;5262;59.958;17.726;2023-07-02T03:51:34;15.30;99.90
10431;DHT22;5262;59.958;17.726;2023-07-02T03:54:00;15.30;99.90
10431;DHT22;5262;59.958;17.726;2023-07-02T03:56:25;15.20;99.90
10431;DHT22;5262;59.958;17.726;2023-07-02T03:58:55;15.10;99.90
10431;DHT22;5262;59.958;17.726;2023-07-02T04:01:20;15.00;99.90
10431;DHT22;5262;59.958;17.726;2023-07-02T04:03:50;15.10;99.90
10431;DHT22;5262;59.958;17.726;2023-07-02T04:06:16;15.10;99.90
10431;DHT22;5262;59.958;17.726;2023-07-02T04:08:42;15.20;99.90
10431;DHT22;5262;59.958;17.726;2023-07-02T04:11:08;15.30;99.90
10431;DHT22;5262;59.958;17.726;2023-07-02T04:13:34;15.20;99.90
10431;DHT22;5262;59.958;17.726;2023-07-02T04:15:59;15.20;99.90
10431;DHT22;5262;59.958;17.726;2023-07-02T04:18:25;15.30;99.90
10431;DHT22;5262;59.958;17.726;2023-07-02T04:20:50;15.20;99.90
10431;DHT22;5262;59.958;17.726;2023-07-02T04:23:16;15.30;99.90
10431;DHT22;5262;59.958;17.726;2023-07-02T04:25:42;15.40;99.90
10431;DHT22;5262;59.958;17.726;2023-07-02T04:28:07;15.40;99.90
10431;DHT22;5262;59.958;17.726;2023-07-02T04:30:33;15.50;99.90
10431;DHT22;5262;59.958;17.726;2023-07-02T04:33:00;15.60;99.90
10431;DHT22;5262;59.958;17.726;2023-07-02T04:35:25;15.60;99.90
10431;DHT22;5262;59.958;17.726;2023-07-02T04:37:51;15.60;99.90
10431;DHT22;5262;59.958;17.726;2023-07-02T04:40:16;15.70;99.90
10431;DHT22;5262;59.958;17.726;2023-07-02T04:42:42;15.80;99.90
10431;DHT22;5262;59.958;17.726;2023-07-02T04:45:15;15.70;99.90
10431;DHT22;5262;59.958;17.726;2023-07-02T04:47:45;15.80;99.90
10431;DHT22;5262;59.958;17.726;2023-07-02T04:50:11;15.70;99.90
10431;DHT22;5262;59.958;17.726;2023-07-02T04:52:39;15.90;99.90
10431;DHT22;5262;59.958;17.726;2023-07-02T04:55:06;15.90;99.90
10431;DHT22;5262;59.958;17.726;2023-07-02T04:57:31;16.10;99.90
10431;DHT22;5262;59.958;17.726;2023-07-02T04:59:57;16.20;99.90
10431;DHT22;5262;59.958;17.726;2023-07-02T05:02:23;16.20;99.90
10431;DHT22;5262;59.958;17.726;2023-07-02T05:04:48;16.20;99.90
10431;DHT22;5262;59.958;17.726;2023-07-02T05:07:15;16.30;99.90
10431;DHT22;5262;59.958;17.726;2023-07-02T05:09:41;16.40;99.90
10431;DHT22;5262;59.958;17.726;2023-07-02T05:12:07;16.60;99.90
10431;DHT22;5262;59.958;17.726;2023-07-02T05:14:33;16.50;99.90
10431;DHT22;5262;59.958;17.726;2023-07-02T05:16:58;16.60;99.90
10431;DHT22;5262;59.958;17.726;2023-07-02T05:19:24;16.60;99.90
10431;DHT22;5262;59.958;17.726;2023-07-02T05:21:49;16.60;99.90
10431;DHT22;5262;59.958;17.726;2023-07-02T05:24:15;16.60;99.90
10431;DHT22;5262;59.958;17.726;2023-07-02T05:26:41;16.70;99.90
10431;DHT22;5262;59.958;17.726;2023-07-02T05:29:07;16.60;99.90
10431;DHT22;5262;59.958;17.726;2023-07-02T05:31:32;16.70;99.90
10431;DHT22;5262;59.958;17.726;2023-07-02T05:33:59;16.80;99.90
10431;DHT22;5262;59.958;17.726;2023-07-02T05:36:25;16.80;99.90
10431;DHT22;5262;59.958;17.726;2023-07-02T05:38:51;16.90;99.90
10431;DHT22;5262;59.958;17.726;2023-07-02T05:41:20;17.00;99.90
10431;DHT22;5262;59.958;17.726;2023-07-02T05:43:46;17.20;99.90
10431;DHT22;5262;59.958;17.726;2023-07-02T05:46:12;17.30;99.90
10431;DHT22;5262;59.958;17.726;2023-07-02T05:48:41;17.40;99.90
10431;DHT22;5262;59.958;17.726;2023-07-02T05:51:07;17.50;99.90
10431;DHT22;5262;59.958;17.726;2023-07-02T05:53:33;17.30;99.90
10431;DHT22;5262;59.958;17.726;2023-07-02T05:55:59;17.50;99.90
10431;DHT22;5262;59.958;17.726;2023-07-02T05:58:25;17.50;99.90
10431;DHT22;5262;59.958;17.726;2023-07-02T06:00:50;17.60;99.90
10431;DHT22;5262;59.958;17.726;2023-07-02T06:03:17;17.60;99.90
10431;DHT22;5262;59.958;17.726;2023-07-02T06:05:49;17.80;99.90
10431;DHT22;5262;59.958;17.726;2023-07-02T06:08:18;17.70;99.90
10431;DHT22;5262;59.958;17.726;2023-07-02T06:10:47;17.80;99.90
10431;DHT22;5262;59.958;17.726;2023-07-02T06:13:13;18.10;99.90
10431;DHT22;5262;59.958;17.726;2023-07-02T06:15:39;18.20;99.90
10431;DHT22;5262;59.958;17.726;2023-07-02T06:18:05;18.30;99.90
10431;DHT22;5262;59.958;17.726;2023-07-02T06:20:30;18.30;99.90
10431;DHT22;5262;59.958;17.726;2023-07-02T06:22:56;18.70;99.90
10431;DHT22;5262;59.958;17.726;2023-07-02T06:25:22;18.90;99.90
10431;DHT22;5262;59.958;17.726;2023-07-02T06:27:48;18.90;99.90
10431;DHT22;5262;59.958;17.726;2023-07-02T06:30:13;18.70;99.90
10431;DHT22;5262;59.958;17.726;2023-07-02T06:32:39;18.80;99.90
10431;DHT22;5262;59.958;17.726;2023-07-02T06:35:05;18.50;99.90
10431;DHT22;5262;59.958;17.726;2023-07-02T06:37:32;18.70;99.90
10431;DHT22;5262;59.958;17.726;2023-07-02T06:39:57;18.30;99.90
10431;DHT22;5262;59.958;17.726;2023-07-02T06:42:24;18.20;99.90
10431;DHT22;5262;59.958;17.726;2023-07-02T06:44:50;17.90;99.90
10431;DHT22;5262;59.958;17.726;2023-07-02T06:47:15;18.10;99.90
10431;DHT22;5262;59.958;17.726;2023-07-02T06:49:41;17.90;99.90
10431;DHT22;5262;59.958;17.726;2023-07-02T06:52:07;18.10;99.90
10431;DHT22;5262;59.958;17.726;2023-07-02T06:54:32;18.00;99.90
10431;DHT22;5262;59.958;17.726;2023-07-02T06:56:59;18.00;99.90
10431;DHT22;5262;59.958;17.726;2023-07-02T06:59:24;18.10;99.90
10431;DHT22;5262;59.958;17.726;2023-07-02T07:01:50;18.20;99.90
10431;DHT22;5262;59.958;17.726;2023-07-02T07:04:16;18.40;99.90
10431;DHT22;5262;59.958;17.726;2023-07-02T07:06:42;18.70;99.90
10431;DHT22;5262;59.958;17.726;2023-07-02T07:09:08;18.80;99.90
10431;DHT22;5262;59.958;17.726;2023-07-02T07:11:34;19.00;99.90
10431;DHT22;5262;59.958;17.726;2023-07-02T07:13:59;18.90;99.90
10431;DHT22;5262;59.958;17.726;2023-07-02T07:16:25;18.90;99.90
10431;DHT22;5262;59.958;17.726;2023-07-02T07:18:51;19.20;99.90
10431;DHT22;5262;59.958;17.726;2023-07-02T07:21:16;19.40;99.90
10431;DHT22;5262;59.958;17.726;2023-07-02T07:23:42;19.80;99.90
10431;DHT22;5262;59.958;17.726;2023-07-02T07:26:08;19.80;99.90
10431;DHT22;5262;59.958;17.726;2023-07-02T07:28:33;19.80;99.90
10431;DHT22;5262;59.958;17.726;2023-07-02T07:30:59;19.80;99.90
10431;DHT22;5262;59.958;17.726;2023-07-02T07:33:24;19.60;99.90
10431;DHT22;5262;59.958;17.726;2023-07-02T07:35:50;19.80;99.90
10431;DHT22;5262;59.958;17.726;2023-07-02T07:38:16;20.40;99.90
10431;DHT22;5262;59.958;17.726;2023-07-02T07:40:44;20.80;99.90
10431;DHT22;5262;59.958;17.726;2023-07-02T07:43:10;20.60;99.90
10431;DHT22;5262;59.958;17.726;2023-07-02T07:45:36;20.40;99.90
10431;DHT22;5262;59.958;17.726;2023-07-02T07:48:04;20.40;99.90
10431;DHT22;5262;59.958;17.726;2023-07-02T07:50:29;20.20;99.90
10431;DHT22;5262;59.958;17.726;2023-07-02T07:52:55;20.30;99.90
10431;DHT22;5262;59.958;17.726;2023-07-02T07:55:21;20.70;99.90
10431;DHT22;5262;59.958;17.726;2023-07-02T07:57:46;21.10;99.90
10431;DHT22;5262;59.958;17.726;2023-07-02T08:00:13;22.10;99.90
10431;DHT22;5262;59.958;17.726;2023-07-02T08:02:38;24.30;99.90
10431;DHT22;5262;59.958;17.726;2023-07-02T08:05:05;24.40;99.00
10431;DHT22;5262;59.958;17.726;2023-07-02T08:07:34;23.90;97.30
10431;DHT22;5262;59.958;17.726;2023-07-02T08:10:00;23.30;98.20
10431;DHT22;5262;59.958;17.726;2023-07-02T08:12:25;22.60;98.40
10431;DHT22;5262;59.958;17.726;2023-07-02T08:14:55;22.30;99.90
10431;DHT22;5262;59.958;17.726;2023-07-02T08:17:21;22.60;99.90
10431;DHT22;5262;59.958;17.726;2023-07-02T08:19:46;22.00;99.90
10431;DHT22;5262;59.958;17.726;2023-07-02T08:22:13;21.70;99.90
10431;DHT22;5262;59.958;17.726;2023-07-02T08:24:38;22.40;99.90
10431;DHT22;5262;59.958;17.726;2023-07-02T08:27:04;22.30;99.00
10431;DHT22;5262;59.958;17.726;2023-07-02T08:29:30;23.10;99.80
10431;DHT22;5262;59.958;17.726;2023-07-02T08:31:56;22.70;97.90
10431;DHT22;5262;59.958;17.726;2023-07-02T08:34:22;22.60;98.50
10431;DHT22;5262;59.958;17.726;2023-07-02T08:36:48;22.10;99.90
10431;DHT22;5262;59.958;17.726;2023-07-02T08:39:14;21.50;99.90
10431;DHT22;5262;59.958;17.726;2023-07-02T08:41:44;21.20;99.90
10431;DHT22;5262;59.958;17.726;2023-07-02T08:44:16;21.10;99.90
10431;DHT22;5262;59.958;17.726;2023-07-02T08:46:44;21.00;99.90
10431;DHT22;5262;59.958;17.726;2023-07-02T08:49:10;21.00;99.90
10431;DHT22;5262;59.958;17.726;2023-07-02T08:51:36;20.70;99.90
10431;DHT22;5262;59.958;17.726;2023-07-02T08:54:02;21.00;99.90
10431;DHT22;5262;59.958;17.726;2023-07-02T08:56:29;21.10;99.90
10431;DHT22;5262;59.958;17.726;2023-07-02T08:58:55;21.30;99.90
10431;DHT22;5262;59.958;17.726;2023-07-02T09:01:21;21.20;99.90
10431;DHT22;5262;59.958;17.726;2023-07-02T09:03:46;21.20;99.90
10431;DHT22;5262;59.958;17.726;2023-07-02T09:06:12;21.00;99.90
10431;DHT22;5262;59.958;17.726;2023-07-02T09:08:39;21.30;99.90
10431;DHT22;5262;59.958;17.726;2023-07-02T09:11:15;20.90;99.90
10431;DHT22;5262;59.958;17.726;2023-07-02T09:13:49;21.90;99.90
10431;DHT22;5262;59.958;17.726;2023-07-02T09:16:22;21.70;99.70
10431;DHT22;5262;59.958;17.726;2023-07-02T09:19:00;22.00;99.90
10431;DHT22;5262;59.958;17.726;2023-07-02T09:21:47;22.30;99.90
10431;DHT22;5262;59.958;17.726;2023-07-02T09:24:21;22.40;99.90
10431;DHT22;5262;59.958;17.726;2023-07-02T09:26:53;22.00;99.50
10431;DHT22;5262;59.958;17.726;2023-07-02T09:31:52;21.90;99.90
10431;DHT22;5262;59.958;17.726;2023-07-02T09:34:17;21.50;99.90
10431;DHT22;5262;59.958;17.726;2023-07-02T09:36:43;21.40;99.90
10431;DHT22;5262;59.958;17.726;2023-07-02T09:39:14;21.00;99.90
10431;DHT22;5262;59.958;17.726;2023-07-02T09:41:41;20.70;99.90
10431;DHT22;5262;59.958;17.726;2023-07-02T09:44:11;20.60;99.90
10431;DHT22;5262;59.958;17.726;2023-07-02T09:46:40;20.30;99.90
10431;DHT22;5262;59.958;17.726;2023-07-02T09:49:12;20.40;99.90
10431;DHT22;5262;59.958;17.726;2023-07-02T09:51:40;19.70;99.90
10431;DHT22;5262;59.958;17.726;2023-07-02T09:54:06;19.60;99.90
10431;DHT22;5262;59.958;17.726;2023-07-02T09:56:31;19.40;99.90
10431;DHT22;5262;59.958;17.726;2023-07-02T09:58:57;19.50;99.90
10431;DHT22;5262;59.958;17.726;2023-07-02T10:01:23;19.00;99.90
10431;DHT22;5262;59.958;17.726;2023-07-02T10:03:48;19.20;99.90
10431;DHT22;5262;59.958;17.726;2023-07-02T10:06:14;19.10;99.90
10431;DHT22;5262;59.958;17.726;2023-07-02T10:08:40;18.90;99.90
10431;DHT22;5262;59.958;17.726;2023-07-02T10:11:12;18.80;99.90
10431;DHT22;5262;59.958;17.726;2023-07-02T10:13:39;18.80;99.90
10431;DHT22;5262;59.958;17.726;2023-07-02T10:16:05;18.60;99.90
10431;DHT22;5262;59.958;17.726;2023-07-02T10:18:32;18.70;99.90
10431;DHT22;5262;59.958;17.726;2023-07-02T10:20:57;18.70;99.90
10431;DHT22;5262;59.958;17.726;2023-07-02T10:23:36;18.70;99.90
10431;DHT22;5262;59.958;17.726;2023-07-02T10:28:40;18.50;99.90
10431;DHT22;5262;59.958;17.726;2023-07-02T10:31:19;18.40;99.90
10431;DHT22;5262;59.958;17.726;2023-07-02T10:33:44;18.30;99.90
10431;DHT22;5262;59.958;17.726;2023-07-02T10:36:18;18.30;99.90
10431;DHT22;5262;59.958;17.726;2023-07-02T10:38:45;18.20;99.90
10431;DHT22;5262;59.958;17.726;2023-07-02T10:41:11;18.20;99.90
10431;DHT22;5262;59.958;17.726;2023-07-02T10:43:36;18.20;99.90
10431;DHT22;5262;59.958;17.726;2023-07-02T10:46:02;18.20;99.90
10431;DHT22;5262;59.958;17.726;2023-07-02T10:48:28;18.10;99.90
10431;DHT22;5262;59.958;17.726;2023-07-02T10:50:54;18.10;99.90
10431;DHT22;5262;59.958;17.726;2023-07-02T10:53:20;18.10;99.90
10431;DHT22;5262;59.958;17.726;2023-07-02T10:55:53;18.00;99.90
10431;DHT22;5262;59.958;17.726;2023-07-02T10:58:19;18.00;99.90
10431;DHT22;5262;59.958;17.726;2023-07-02T11:03:20;17.80;99.90
10431;DHT22;5262;59.958;17.726;2023-07-02T11:05:47;17.70;99.90
10431;DHT22;5262;59.958;17.726;2023-07-02T11:08:13;17.60;99.90
10431;DHT22;5262;59.958;17.726;2023-07-02T11:10:39;17.30;99.90
10431;DHT22;5262;59.958;17.726;2023-07-02T11:15:40;17.10;99.90
10431;DHT22;5262;59.958;17.726;2023-07-02T11:18:11;17.00;99.90
10431;DHT22;5262;59.958;17.726;2023-07-02T11:20:37;16.80;99.90
10431;DHT22;5262;59.958;17.726;2023-07-02T11:23:03;16.60;99.90
10431;DHT22;5262;59.958;17.726;2023-07-02T11:25:29;16.60;99.90
10431;DHT22;5262;59.958;17.726;2023-07-02T11:28:04;16.40;99.90
10431;DHT22;5262;59.958;17.726;2023-07-02T11:30:30;16.30;99.90
10431;DHT22;5262;59.958;17.726;2023-07-02T11:32:56;16.20;99.90
10431;DHT22;5262;59.958;17.726;2023-07-02T11:35:27;16.20;99.90
10431;DHT22;5262;59.958;17.726;2023-07-02T11:37:58;16.30;99.90
10431;DHT22;5262;59.958;17.726;2023-07-02T11:40:24;16.30;99.90
10431;DHT22;5262;59.958;17.726;2023-07-02T11:42:50;16.30;99.90
10431;DHT22;5262;59.958;17.726;2023-07-02T11:45:15;16.40;99.90
10431;DHT22;5262;59.958;17.726;2023-07-02T11:47:41;16.40;99.90
10431;DHT22;5262;59.958;17.726;2023-07-02T11:50:07;16.40;99.90
10431;DHT22;5262;59.958;17.726;2023-07-02T11:52:33;16.40;99.90
10431;DHT22;5262;59.958;17.726;2023-07-02T11:54:58;16.40;99.90
10431;DHT22;5262;59.958;17.726;2023-07-02T11:57:24;16.50;99.90
10431;DHT22;5262;59.958;17.726;2023-07-02T11:59:50;16.50;99.90
10431;DHT22;5262;59.958;17.726;2023-07-02T12:02:18;16.50;99.90
10431;DHT22;5262;59.958;17.726;2023-07-02T12:04:43;16.30;99.90
10431;DHT22;5262;59.958;17.726;2023-07-02T12:07:09;16.20;99.90
10431;DHT22;5262;59.958;17.726;2023-07-02T12:09:36;16.20;99.90
10431;DHT22;5262;59.958;17.726;2023-07-02T12:12:02;16.20;99.90
10431;DHT22;5262;59.958;17.726;2023-07-02T12:14:28;16.10;99.90
10431;DHT22;5262;59.958;17.726;2023-07-02T12:16:53;16.20;99.90
10431;DHT22;5262;59.958;17.726;2023-07-02T12:19:19;16.20;99.90
10431;DHT22;5262;59.958;17.726;2023-07-02T12:21:44;16.20;99.90
10431;DHT22;5262;59.958;17.726;2023-07-02T12:24:10;16.20;99.90
10431;DHT22;5262;59.958;17.726;2023-07-02T12:26:37;16.20;99.90
10431;DHT22;5262;59.958;17.726;2023-07-02T12:29:03;16.20;99.90
10431;DHT22;5262;59.958;17.726;2023-07-02T12:31:30;16.20;99.90
10431;DHT22;5262;59.958;17.726;2023-07-02T12:33:55;16.20;99.90
10431;DHT22;5262;59.958;17.726;2023-07-02T12:36:21;16.00;99.90
10431;DHT22;5262;59.958;17.726;2023-07-02T12:38:47;16.00;99.90
10431;DHT22;5262;59.958;17.726;2023-07-02T12:41:12;16.10;99.90
10431;DHT22;5262;59.958;17.726;2023-07-02T12:43:38;16.30;99.90
10431;DHT22;5262;59.958;17.726;2023-07-02T12:46:04;16.30;99.90
10431;DHT22;5262;59.958;17.726;2023-07-02T12:48:29;16.40;99.90
10431;DHT22;5262;59.958;17.726;2023-07-02T12:50:56;16.40;99.90
10431;DHT22;5262;59.958;17.726;2023-07-02T12:53:23;16.20;99.90
10431;DHT22;5262;59.958;17.726;2023-07-02T12:55:48;16.00;99.90
10431;DHT22;5262;59.958;17.726;2023-07-02T12:58:14;16.10;99.90
10431;DHT22;5262;59.958;17.726;2023-07-02T13:00:39;16.10;99.90
10431;DHT22;5262;59.958;17.726;2023-07-02T13:03:09;16.10;99.90
10431;DHT22;5262;59.958;17.726;2023-07-02T13:05:35;16.00;99.90
10431;DHT22;5262;59.958;17.726;2023-07-02T13:08:00;15.90;99.90
10431;DHT22;5262;59.958;17.726;2023-07-02T13:10:26;15.80;99.90
10431;DHT22;5262;59.958;17.726;2023-07-02T13:12:52;15.90;99.90
10431;DHT22;5262;59.958;17.726;2023-07-02T13:15:17;15.90;99.90
10431;DHT22;5262;59.958;17.726;2023-07-02T13:17:43;15.80;99.90
10431;DHT22;5262;59.958;17.726;2023-07-02T13:20:09;15.70;99.90
10431;DHT22;5262;59.958;17.726;2023-07-02T13:22:35;15.80;99.90
10431;DHT22;5262;59.958;17.726;2023-07-02T13:25:00;15.80;99.90
10431;DHT22;5262;59.958;17.726;2023-07-02T13:27:26;15.80;99.90
10431;DHT22;5262;59.958;17.726;2023-07-02T13:29:52;15.80;99.90
10431;DHT22;5262;59.958;17.726;2023-07-02T13:32:17;15.80;99.90
10431;DHT22;5262;59.958;17.726;2023-07-02T13:34:43;15.80;99.90
10431;DHT22;5262;59.958;17.726;2023-07-02T13:37:09;15.70;99.90
10431;DHT22;5262;59.958;17.726;2023-07-02T13:39:34;15.80;99.90
10431;DHT22;5262;59.958;17.726;2023-07-02T13:42:00;15.80;99.90
10431;DHT22;5262;59.958;17.726;2023-07-02T13:44:26;15.80;99.90
10431;DHT22;5262;59.958;17.726;2023-07-02T13:46:51;15.80;99.90
10431;DHT22;5262;59.958;17.726;2023-07-02T13:49:18;15.90;99.90
10431;DHT22;5262;59.958;17.726;2023-07-02T13:51:44;15.90;99.90
10431;DHT22;5262;59.958;17.726;2023-07-02T13:54:12;15.80;99.90
10431;DHT22;5262;59.958;17.726;2023-07-02T13:56:37;15.80;99.90
10431;DHT22;5262;59.958;17.726;2023-07-02T13:59:03;15.90;99.90
10431;DHT22;5262;59.958;17.726;2023-07-02T14:01:29;15.80;99.90
10431;DHT22;5262;59.958;17.726;2023-07-02T14:03:55;16.00;99.90
10431;DHT22;5262;59.958;17.726;2023-07-02T14:06:21;16.10;99.90
10431;DHT22;5262;59.958;17.726;2023-07-02T14:08:47;15.80;99.90
10431;DHT22;5262;59.958;17.726;2023-07-02T14:11:13;15.90;99.90
10431;DHT22;5262;59.958;17.726;2023-07-02T14:13:38;16.00;99.90
10431;DHT22;5262;59.958;17.726;2023-07-02T14:16:04;16.00;99.90
10431;DHT22;5262;59.958;17.726;2023-07-02T14:18:29;15.90;99.90
10431;DHT22;5262;59.958;17.726;2023-07-02T14:20:55;16.00;99.90
10431;DHT22;5262;59.958;17.726;2023-07-02T14:23:21;16.10;99.90
10431;DHT22;5262;59.958;17.726;2023-07-02T14:25:47;15.90;99.90
10431;DHT22;5262;59.958;17.726;2023-07-02T14:28:12;15.90;99.90
10431;DHT22;5262;59.958;17.726;2023-07-02T14:30:38;15.80;99.90
10431;DHT22;5262;59.958;17.726;2023-07-02T14:33:05;15.70;99.90
10431;DHT22;5262;59.958;17.726;2023-07-02T14:35:30;15.60;99.90
10431;DHT22;5262;59.958;17.726;2023-07-02T14:37:57;15.70;99.90
10431;DHT22;5262;59.958;17.726;2023-07-02T14:40:23;15.70;99.90
10431;DHT22;5262;59.958;17.726;2023-07-02T14:42:49;15.60;99.90
10431;DHT22;5262;59.958;17.726;2023-07-02T14:45:14;15.80;99.90
10431;DHT22;5262;59.958;17.726;2023-07-02T14:47:40;15.90;99.90
10431;DHT22;5262;59.958;17.726;2023-07-02T14:50:06;15.80;99.90
10431;DHT22;5262;59.958;17.726;2023-07-02T14:52:31;15.80;99.90
10431;DHT22;5262;59.958;17.726;2023-07-02T14:54:57;15.60;99.90
10431;DHT22;5262;59.958;17.726;2023-07-02T14:57:25;15.80;99.90
10431;DHT22;5262;59.958;17.726;2023-07-02T14:59:51;15.80;99.90
10431;DHT22;5262;59.958;17.726;2023-07-02T15:02:17;15.80;99.90
10431;DHT22;5262;59.958;17.726;2023-07-02T15:04:44;15.90;99.90
10431;DHT22;5262;59.958;17.726;2023-07-02T15:07:10;15.80;99.90
10431;DHT22;5262;59.958;17.726;2023-07-02T15:09:36;15.90;99.90
10431;DHT22;5262;59.958;17.726;2023-07-02T15:12:02;15.80;99.90
10431;DHT22;5262;59.958;17.726;2023-07-02T15:14:27;15.80;99.90
10431;DHT22;5262;59.958;17.726;2023-07-02T15:16:53;15.90;99.90
10431;DHT22;5262;59.958;17.726;2023-07-02T15:19:19;15.90;99.90
10431;DHT22;5262;59.958;17.726;2023-07-02T15:21:44;15.90;99.90
10431;DHT22;5262;59.958;17.726;2023-07-02T15:24:10;15.90;99.90
10431;DHT22;5262;59.958;17.726;2023-07-02T15:26:38;15.80;99.90
10431;DHT22;5262;59.958;17.726;2023-07-02T15:29:05;15.60;99.90
10431;DHT22;5262;59.958;17.726;2023-07-02T15:31:30;15.70;99.90
10431;DHT22;5262;59.958;17.726;2023-07-02T15:33:56;15.60;99.90
10431;DHT22;5262;59.958;17.726;2023-07-02T15:36:22;15.60;99.90